Time;durP1;ratioP1;P1;durP2;ratioP2;P2;SDS_P1;SDS_P2;PMS_P1;PMS_P2;Temp;Humidity;BMP_temperature;BMP_pressure;BME280_temperature;BME280_humidity;BME280_pressure;Samples;Min_cycle;Max_cycle;Signal;HPM_P1;HPM_P2
2022/07/05 00:02:23;;;;;;;3.42;2.53;;;;;;;;;;4951720;28;20077;-87
2022/07/05 00:04:50;;;;;;;5.60;2.35;;;;;;;;;;4947031;28;20023;-87
2022/07/05 00:07:20;;;;;;;4.57;2.10;;;;;;;;;;4955335;28;20073;-88
2022/07/05 00:09:49;;;;;;;7.50;2.60;;;;;;;;;;4948922;28;20085;-88
2022/07/05 00:12:15;;;;;;;6.38;2.80;;;;;;;;;;4970093;28;20046;-88
2022/07/05 00:14:42;;;;;;;6.35;2.45;;;;;;;;;;4952433;28;20046;-88
2022/07/05 00:17:08;;;;;;;5.00;2.42;;;;;;;;;;4951180;28;20031;-88
2022/07/05 00:19:35;;;;;;;8.05;2.53;;;;;;;;;;4943050;28;20027;-87
2022/07/05 00:22:01;;;;;;;6.72;2.60;;;;;;;;;;4969538;28;20545;-87
2022/07/05 00:24:27;;;;;;;3.78;2.17;;;;;;;;;;4969302;28;20035;-87
2022/07/05 00:26:53;;;;;;;9.70;2.75;;;;;;;;;;4944759;28;20034;-87
2022/07/05 00:29:19;;;;;;;9.52;2.30;;;;;;;;;;4948892;28;20038;-88
2022/07/05 00:31:45;;;;;;;3.97;1.80;;;;;;;;;;4951470;28;20085;-88
2022/07/05 00:34:18;;;;;;;4.53;2.53;;;;;;;;;;4951612;28;20038;-88
2022/07/05 00:36:44;;;;;;;8.52;2.72;;;;;;;;;;4966985;28;20031;-85
2022/07/05 00:39:10;;;;;;;6.85;2.70;;;;;;;;;;4967610;28;20512;-86
2022/07/05 00:41:37;;;;;;;4.47;2.25;;;;;;;;;;4948457;28;20111;-87
2022/07/05 00:44:04;;;;;;;8.55;2.65;;;;;;;;;;4950648;28;20591;-87
2022/07/05 00:46:30;;;;;;;7.18;2.75;;;;;;;;;;4947728;28;20041;-88
2022/07/05 00:49:06;;;;;;;11.30;2.50;;;;;;;;;;4949186;28;20061;-87
2022/07/05 00:51:33;;;;;;;7.30;2.55;;;;;;;;;;4951413;28;20086;-87
2022/07/05 00:54:00;;;;;;;5.65;2.05;;;;;;;;;;4950483;28;20031;-87
2022/07/05 00:56:27;;;;;;;5.63;2.20;;;;;;;;;;4953093;28;20089;-88
2022/07/05 00:58:59;;;;;;;6.65;2.40;;;;;;;;;;4950196;28;20045;-88
2022/07/05 01:01:26;;;;;;;5.57;2.53;;;;;;;;;;4955428;28;20379;-89
2022/07/05 01:03:52;;;;;;;5.18;2.65;;;;;;;;;;4953927;28;20030;-88
2022/07/05 01:06:19;;;;;;;6.90;2.80;;;;;;;;;;4966990;28;20084;-88
2022/07/05 01:08:46;;;;;;;10.05;2.75;;;;;;;;;;4967006;28;20086;-88
2022/07/05 01:11:19;;;;;;;4.57;2.55;;;;;;;;;;4955794;28;20142;-88
2022/07/05 01:13:45;;;;;;;7.75;2.72;;;;;;;;;;4948342;28;20150;-88
2022/07/05 01:16:13;;;;;;;11.20;3.00;;;;;;;;;;4950154;28;20034;-88
2022/07/05 01:18:39;;;;;;;9.43;2.22;;;;;;;;;;4943586;28;20042;-87
2022/07/05 01:21:06;;;;;;;11.00;2.70;;;;;;;;;;4950355;28;20035;-87
2022/07/05 01:23:32;;;;;;;9.10;2.63;;;;;;;;;;4960479;28;20035;-87
2022/07/05 01:26:00;;;;;;;7.15;3.00;;;;;;;;;;4955323;28;20031;-87
2022/07/05 01:28:26;;;;;;;7.80;2.70;;;;;;;;;;4968258;28;20043;-87
2022/07/05 01:30:52;;;;;;;4.70;3.08;;;;;;;;;;4970577;28;20039;-87
2022/07/05 01:33:18;;;;;;;6.22;3.30;;;;;;;;;;4957624;28;20039;-89
2022/07/05 01:35:45;;;;;;;6.22;2.75;;;;;;;;;;4954941;28;20029;-88
2022/07/05 01:38:11;;;;;;;6.35;2.90;;;;;;;;;;4953342;28;20097;-88
2022/07/05 01:40:37;;;;;;;7.22;3.15;;;;;;;;;;4952446;28;20031;-87
2022/07/05 01:43:04;;;;;;;6.00;3.13;;;;;;;;;;4955326;28;20047;-88
2022/07/05 01:45:39;;;;;;;5.60;2.80;;;;;;;;;;4944807;28;20031;-88
2022/07/05 01:48:10;;;;;;;8.20;3.40;;;;;;;;;;4951668;28;20057;-87
2022/07/05 01:50:42;;;;;;;8.18;3.80;;;;;;;;;;4953963;28;20030;-87
2022/07/05 01:53:11;;;;;;;5.65;3.50;;;;;;;;;;4954529;28;20035;-87
2022/07/05 01:55:37;;;;;;;5.88;3.22;;;;;;;;;;4971098;28;20141;-87
2022/07/05 01:58:03;;;;;;;5.43;3.35;;;;;;;;;;4957815;28;20878;-87
2022/07/05 02:00:29;;;;;;;5.43;3.90;;;;;;;;;;4953924;28;20019;-88
2022/07/05 02:02:55;;;;;;;6.60;4.00;;;;;;;;;;4947913;28;20101;-87
2022/07/05 02:05:22;;;;;;;5.53;3.95;;;;;;;;;;4949032;28;20157;-88
2022/07/05 02:07:48;;;;;;;10.23;4.10;;;;;;;;;;4968735;28;20023;-88
2022/07/05 02:10:14;;;;;;;12.77;4.38;;;;;;;;;;4946979;28;20030;-88
2022/07/05 02:12:41;;;;;;;6.65;3.97;;;;;;;;;;4908399;29;20130;-88
2022/07/05 02:15:07;;;;;;;11.30;4.47;;;;;;;;;;4911519;29;20030;-89
2022/07/05 02:17:33;;;;;;;10.38;4.32;;;;;;;;;;4908561;29;20551;-88
2022/07/05 02:20:00;;;;;;;10.15;4.38;;;;;;;;;;4911575;29;20031;-89
2022/07/05 02:22:26;;;;;;;9.05;4.40;;;;;;;;;;4911398;29;20107;-88
2022/07/05 02:24:52;;;;;;;5.82;4.25;;;;;;;;;;4917086;29;20479;-88
2022/07/05 02:27:18;;;;;;;8.82;4.63;;;;;;;;;;4915713;29;20036;-88
2022/07/05 02:29:44;;;;;;;7.40;3.60;;;;;;;;;;4916673;29;20032;-87
2022/07/05 02:32:10;;;;;;;10.20;4.00;;;;;;;;;;4916771;29;20395;-88
2022/07/05 02:34:36;;;;;;;9.93;4.07;;;;;;;;;;4928261;29;20030;-87
2022/07/05 02:37:02;;;;;;;6.18;3.53;;;;;;;;;;4911779;29;20114;-88
2022/07/05 02:39:28;;;;;;;8.77;4.03;;;;;;;;;;4931002;29;20032;-87
2022/07/05 02:41:54;;;;;;;7.45;4.40;;;;;;;;;;4912881;29;20563;-88
2022/07/05 02:44:20;;;;;;;9.35;4.30;;;;;;;;;;4915593;29;20028;-88
2022/07/05 02:46:46;;;;;;;10.90;3.88;;;;;;;;;;4927815;29;20051;-87
2022/07/05 02:49:12;;;;;;;10.82;4.53;;;;;;;;;;4920911;29;20032;-87
2022/07/05 02:51:38;;;;;;;9.25;4.30;;;;;;;;;;4912625;29;20024;-87
2022/07/05 02:54:04;;;;;;;5.90;4.03;;;;;;;;;;4907034;29;20042;-85
2022/07/05 02:56:31;;;;;;;8.90;4.15;;;;;;;;;;4910978;29;20388;-86
2022/07/05 02:58:57;;;;;;;5.25;3.97;;;;;;;;;;4911805;29;20035;-86
2022/07/05 03:01:23;;;;;;;7.55;4.47;;;;;;;;;;4929594;29;20043;-86
2022/07/05 03:03:49;;;;;;;7.07;4.85;;;;;;;;;;4910147;29;20047;-87
2022/07/05 03:06:15;;;;;;;10.23;4.13;;;;;;;;;;4929593;29;20392;-87
2022/07/05 03:08:41;;;;;;;6.20;4.30;;;;;;;;;;4913422;29;20123;-87
2022/07/05 03:11:07;;;;;;;11.88;4.85;;;;;;;;;;4939207;28;20585;-87
2022/07/05 03:13:33;;;;;;;10.38;4.72;;;;;;;;;;4946790;28;20062;-88
2022/07/05 03:15:59;;;;;;;8.20;4.80;;;;;;;;;;4951956;28;20034;-86
2022/07/05 03:18:25;;;;;;;11.45;5.00;;;;;;;;;;4950180;28;20034;-87
2022/07/05 03:20:51;;;;;;;7.38;5.32;;;;;;;;;;4966766;28;20084;-86
2022/07/05 03:23:17;;;;;;;12.98;4.82;;;;;;;;;;4968388;28;20137;-87
2022/07/05 03:25:43;;;;;;;10.55;4.85;;;;;;;;;;4948752;28;20066;-88
2022/07/05 03:28:09;;;;;;;6.35;4.70;;;;;;;;;;4969156;28;20432;-86
2022/07/05 03:30:35;;;;;;;8.38;5.20;;;;;;;;;;4956316;28;20047;-87
2022/07/05 03:33:01;;;;;;;10.45;4.85;;;;;;;;;;4951153;28;20126;-87
2022/07/05 03:35:28;;;;;;;8.82;5.43;;;;;;;;;;4948731;28;20103;-86
2022/07/05 03:37:54;;;;;;;9.18;5.15;;;;;;;;;;4945886;28;20030;-86
2022/07/05 03:40:20;;;;;;;7.10;5.00;;;;;;;;;;4950849;28;20031;-87
2022/07/05 03:42:46;;;;;;;10.30;4.88;;;;;;;;;;4967837;28;20036;-86
2022/07/05 03:45:12;;;;;;;10.82;5.63;;;;;;;;;;4967242;28;20018;-86
2022/07/05 03:47:38;;;;;;;8.68;5.05;;;;;;;;;;4952692;28;20038;-87
2022/07/05 03:50:04;;;;;;;8.85;5.32;;;;;;;;;;4968201;28;20037;-86
2022/07/05 03:52:31;;;;;;;9.85;5.70;;;;;;;;;;4949238;28;20121;-87
2022/07/05 03:54:57;;;;;;;7.63;5.25;;;;;;;;;;4954027;28;20503;-88
2022/07/05 03:57:23;;;;;;;18.83;5.60;;;;;;;;;;4963762;28;20039;-87
2022/07/05 03:59:49;;;;;;;7.80;4.93;;;;;;;;;;4964683;28;20023;-86
2022/07/05 04:02:15;;;;;;;6.55;5.22;;;;;;;;;;4949911;28;20193;-87
2022/07/05 04:04:41;;;;;;;7.63;5.18;;;;;;;;;;4951558;28;20122;-88
2022/07/05 04:07:07;;;;;;;10.23;5.28;;;;;;;;;;4946854;28;20502;-87
2022/07/05 04:09:33;;;;;;;8.05;5.45;;;;;;;;;;4947283;28;20089;-87
2022/07/05 04:11:59;;;;;;;9.73;5.07;;;;;;;;;;4969764;28;20797;-87
2022/07/05 04:14:25;;;;;;;9.10;4.93;;;;;;;;;;4951237;28;20167;-88
2022/07/05 04:16:51;;;;;;;7.50;5.75;;;;;;;;;;4954134;28;20042;-87
2022/07/05 04:19:17;;;;;;;8.98;4.82;;;;;;;;;;4952686;28;20145;-88
2022/07/05 04:21:43;;;;;;;17.75;6.70;;;;;;;;;;4969119;28;20034;-88
2022/07/05 04:24:10;;;;;;;8.65;4.05;;;;;;;;;;4962632;28;20041;-87
2022/07/05 04:26:36;;;;;;;6.07;4.00;;;;;;;;;;4952525;28;20093;-87
2022/07/05 04:29:02;;;;;;;7.95;4.93;;;;;;;;;;4953520;28;20023;-87
2022/07/05 04:31:28;;;;;;;6.35;4.43;;;;;;;;;;4950033;28;20039;-87
2022/07/05 04:33:54;;;;;;;5.57;3.90;;;;;;;;;;4951675;28;20041;-87
2022/07/05 04:36:20;;;;;;;9.50;4.05;;;;;;;;;;4951720;28;20073;-87
2022/07/05 04:38:46;;;;;;;7.55;3.95;;;;;;;;;;4951991;28;20496;-87
2022/07/05 04:41:12;;;;;;;4.65;3.60;;;;;;;;;;4950575;28;20162;-87
2022/07/05 04:43:38;;;;;;;5.65;4.10;;;;;;;;;;4950886;28;20118;-87
2022/07/05 04:46:05;;;;;;;4.63;3.35;;;;;;;;;;4965116;28;20409;-87
2022/07/05 04:48:31;;;;;;;12.70;3.53;;;;;;;;;;4947164;28;20053;-88
2022/07/05 04:50:57;;;;;;;8.88;3.25;;;;;;;;;;4963398;28;20642;-87
2022/07/05 04:53:23;;;;;;;13.00;3.50;;;;;;;;;;4954275;28;20506;-87
2022/07/05 04:55:50;;;;;;;10.02;3.53;;;;;;;;;;4967415;28;20030;-87
2022/07/05 04:58:16;;;;;;;5.30;3.38;;;;;;;;;;4946015;28;20057;-88
2022/07/05 05:00:42;;;;;;;8.02;3.83;;;;;;;;;;4966792;28;20035;-88
2022/07/05 05:03:08;;;;;;;9.70;2.95;;;;;;;;;;4950842;28;20050;-87
2022/07/05 05:05:34;;;;;;;6.68;3.28;;;;;;;;;;4945436;28;20035;-87
2022/07/05 05:08:00;;;;;;;6.00;3.30;;;;;;;;;;4967005;28;20039;-87
2022/07/05 05:10:26;;;;;;;6.60;3.00;;;;;;;;;;4950458;28;20042;-87
2022/07/05 05:12:52;;;;;;;3.30;2.80;;;;;;;;;;4962797;28;20140;-87
2022/07/05 05:15:18;;;;;;;5.95;3.25;;;;;;;;;;4951327;28;20058;-87
2022/07/05 05:17:44;;;;;;;6.55;3.05;;;;;;;;;;4950509;28;20029;-87
2022/07/05 05:20:11;;;;;;;7.65;2.70;;;;;;;;;;4962704;28;20027;-88
2022/07/05 05:22:38;;;;;;;3.65;2.60;;;;;;;;;;4950456;28;20031;-89
2022/07/05 05:25:04;;;;;;;4.93;2.90;;;;;;;;;;4966141;28;20034;-88
2022/07/05 05:27:30;;;;;;;5.30;3.05;;;;;;;;;;4965545;28;20498;-88
2022/07/05 05:29:56;;;;;;;7.60;2.75;;;;;;;;;;4967908;28;20116;-89
2022/07/05 05:32:22;;;;;;;12.73;3.15;;;;;;;;;;4967994;28;20098;-89
2022/07/05 05:34:48;;;;;;;6.38;3.05;;;;;;;;;;4966235;28;20027;-89
2022/07/05 05:37:14;;;;;;;3.67;2.63;;;;;;;;;;4955363;28;20040;-89
2022/07/05 05:39:40;;;;;;;9.02;2.90;;;;;;;;;;4946422;28;20141;-89
2022/07/05 05:42:07;;;;;;;6.90;2.97;;;;;;;;;;4951148;28;20045;-88
2022/07/05 05:44:33;;;;;;;7.97;2.40;;;;;;;;;;4948800;28;20397;-90
2022/07/05 05:46:59;;;;;;;6.55;2.92;;;;;;;;;;4947881;28;20031;-89
2022/07/05 05:49:25;;;;;;;4.95;2.70;;;;;;;;;;4967771;28;20039;-89
2022/07/05 05:51:51;;;;;;;4.60;2.30;;;;;;;;;;4963178;28;20026;-88
2022/07/05 05:54:20;;;;;;;9.40;3.42;;;;;;;;;;4953129;28;20027;-88
2022/07/05 05:56:46;;;;;;;7.03;3.67;;;;;;;;;;4951236;28;20466;-88
2022/07/05 05:59:12;;;;;;;8.18;2.70;;;;;;;;;;4956205;28;20038;-89
2022/07/05 06:01:38;;;;;;;3.20;2.15;;;;;;;;;;4950930;28;20023;-89
2022/07/05 06:04:04;;;;;;;6.55;3.08;;;;;;;;;;4955472;28;20035;-89
2022/07/05 06:06:30;;;;;;;9.10;2.50;;;;;;;;;;4946721;28;20504;-88
2022/07/05 06:08:56;;;;;;;7.05;2.20;;;;;;;;;;4947898;28;20558;-88
2022/07/05 06:11:22;;;;;;;6.05;1.95;;;;;;;;;;4967375;28;20143;-88
2022/07/05 06:13:48;;;;;;;6.95;2.45;;;;;;;;;;4950141;28;20033;-88
2022/07/05 06:16:14;;;;;;;4.13;2.00;;;;;;;;;;4969941;28;20520;-88
2022/07/05 06:18:40;;;;;;;8.45;2.30;;;;;;;;;;4973430;28;20023;-88
2022/07/05 06:21:06;;;;;;;7.75;2.70;;;;;;;;;;4968249;28;20106;-88
2022/07/05 06:23:38;;;;;;;4.53;1.83;;;;;;;;;;4953166;28;20037;-88
2022/07/05 06:26:04;;;;;;;9.82;1.73;;;;;;;;;;4951180;28;20066;-88
2022/07/05 06:28:32;;;;;;;6.47;1.35;;;;;;;;;;4954610;28;20070;-88
2022/07/05 06:30:58;;;;;;;6.85;2.00;;;;;;;;;;4957251;28;20045;-88
2022/07/05 06:33:24;;;;;;;3.50;1.80;;;;;;;;;;4958384;28;20122;-89
2022/07/05 06:35:50;;;;;;;4.85;1.90;;;;;;;;;;4956587;28;20457;-90
2022/07/05 06:38:16;;;;;;;3.00;1.60;;;;;;;;;;4972036;28;20467;-88
2022/07/05 06:40:43;;;;;;;4.40;1.60;;;;;;;;;;4953958;28;20050;-89
2022/07/05 06:43:11;;;;;;;7.22;2.05;;;;;;;;;;4955321;28;20085;-88
2022/07/05 06:45:37;;;;;;;5.28;1.45;;;;;;;;;;4968710;28;20674;-88
2022/07/05 06:48:10;;;;;;;3.10;1.55;;;;;;;;;;4973178;28;20627;-87
2022/07/05 06:50:38;;;;;;;11.75;1.55;;;;;;;;;;4955830;28;20050;-88
2022/07/05 06:53:04;;;;;;;5.13;1.45;;;;;;;;;;4967446;28;20077;-88
2022/07/05 06:55:36;;;;;;;4.05;1.40;;;;;;;;;;4953045;28;20395;-89
2022/07/05 06:58:08;;;;;;;5.95;1.52;;;;;;;;;;4956722;28;20367;-88
2022/07/05 07:00:35;;;;;;;8.25;1.75;;;;;;;;;;4956663;28;20019;-88
2022/07/05 07:03:01;;;;;;;12.10;1.73;;;;;;;;;;4966383;28;20462;-88
2022/07/05 07:05:27;;;;;;;3.63;1.20;;;;;;;;;;4954096;28;20037;-88
2022/07/05 07:10:38;;;;;;;5.22;1.05;;;;;;;;;;4970294;28;20041;-87
2022/07/05 07:13:04;;;;;;;5.47;1.65;;;;;;;;;;4948876;28;20089;-88
2022/07/05 07:15:31;;;;;;;2.75;1.10;;;;;;;;;;4947885;28;20690;-88
2022/07/05 07:17:57;;;;;;;8.38;1.17;;;;;;;;;;4964414;28;20458;-87
2022/07/05 07:20:23;;;;;;;4.43;1.10;;;;;;;;;;4949667;28;20035;-89
2022/07/05 07:22:49;;;;;;;5.30;1.30;;;;;;;;;;4961819;28;20054;-89
2022/07/05 07:25:17;;;;;;;3.30;1.15;;;;;;;;;;4949737;28;20058;-87
2022/07/05 07:27:49;;;;;;;5.50;0.88;;;;;;;;;;4966007;28;20122;-89
2022/07/05 07:30:16;;;;;;;8.90;1.38;;;;;;;;;;4946501;28;20070;-89
2022/07/05 07:32:43;;;;;;;8.02;2.10;;;;;;;;;;4951402;28;20497;-88
2022/07/05 07:35:10;;;;;;;6.80;1.10;;;;;;;;;;4947710;28;20110;-89
2022/07/05 07:37:36;;;;;;;4.05;1.58;;;;;;;;;;4969706;28;21020;-89
2022/07/05 07:40:03;;;;;;;5.40;1.20;;;;;;;;;;4953237;28;20042;-89
2022/07/05 07:42:29;;;;;;;5.45;1.15;;;;;;;;;;4971075;28;21408;-89
2022/07/05 07:44:55;;;;;;;4.93;1.30;;;;;;;;;;4965392;28;20042;-89
2022/07/05 07:47:21;;;;;;;3.17;0.73;;;;;;;;;;4948920;28;20073;-89
2022/07/05 07:49:47;;;;;;;6.88;1.25;;;;;;;;;;4949785;28;20035;-89
2022/07/05 07:52:13;;;;;;;4.75;0.90;;;;;;;;;;4950323;28;20446;-88
2022/07/05 07:54:39;;;;;;;4.13;0.90;;;;;;;;;;4962634;28;20038;-88
2022/07/05 07:57:05;;;;;;;2.63;0.90;;;;;;;;;;4950337;28;20042;-89
2022/07/05 07:59:32;;;;;;;7.80;1.10;;;;;;;;;;4947598;28;20395;-89
2022/07/05 08:01:58;;;;;;;3.95;0.93;;;;;;;;;;4945809;28;20506;-88
2022/07/05 08:04:24;;;;;;;4.28;1.23;;;;;;;;;;4948231;28;20034;-88
2022/07/05 08:06:50;;;;;;;2.83;0.80;;;;;;;;;;4965741;28;20034;-88
2022/07/05 08:09:16;;;;;;;5.38;0.98;;;;;;;;;;4947782;28;20038;-88
2022/07/05 08:11:42;;;;;;;2.95;1.30;;;;;;;;;;4946108;28;20047;-89
2022/07/05 08:14:09;;;;;;;1.77;0.93;;;;;;;;;;4948572;28;20093;-87
2022/07/05 08:16:35;;;;;;;5.25;1.00;;;;;;;;;;4947074;28;20035;-88
2022/07/05 08:21:47;;;;;;;1.88;0.85;;;;;;;;;;4966298;28;20080;-88
2022/07/05 08:24:14;;;;;;;5.88;1.13;;;;;;;;;;4959955;28;20066;-89
2022/07/05 08:26:40;;;;;;;8.40;1.52;;;;;;;;;;4949182;28;20042;-88
2022/07/05 08:29:11;;;;;;;6.78;1.40;;;;;;;;;;4949060;28;20561;-88
2022/07/05 08:31:38;;;;;;;5.45;1.60;;;;;;;;;;4963257;28;20069;-88
2022/07/05 08:34:04;;;;;;;3.53;1.30;;;;;;;;;;4949931;28;20137;-88
2022/07/05 08:36:30;;;;;;;2.88;1.20;;;;;;;;;;4963970;28;20483;-89
2022/07/05 08:38:57;;;;;;;2.92;0.98;;;;;;;;;;4967590;28;20560;-88
2022/07/05 08:41:23;;;;;;;9.15;1.88;;;;;;;;;;4962341;28;20137;-88
2022/07/05 08:43:51;;;;;;;3.05;0.90;;;;;;;;;;4961813;28;20030;-88
2022/07/05 08:46:18;;;;;;;6.22;1.13;;;;;;;;;;4947380;28;20062;-88
2022/07/05 08:48:48;;;;;;;3.80;1.20;;;;;;;;;;4943892;28;20045;-88
2022/07/05 08:51:25;;;;;;;5.15;1.17;;;;;;;;;;4947971;28;20031;-88
2022/07/05 08:53:52;;;;;;;3.47;1.20;;;;;;;;;;4949906;28;20077;-88
2022/07/05 08:56:19;;;;;;;5.50;1.13;;;;;;;;;;4952105;28;20035;-89
2022/07/05 08:58:45;;;;;;;4.75;1.30;;;;;;;;;;4951736;28;20709;-89
2022/07/05 09:01:12;;;;;;;3.28;1.10;;;;;;;;;;4970279;28;20039;-89
2022/07/05 09:03:51;;;;;;;6.13;1.23;;;;;;;;;;4965532;28;20035;-89
2022/07/05 09:06:18;;;;;;;3.00;1.05;;;;;;;;;;4958777;28;20454;-89
2022/07/05 09:08:45;;;;;;;5.25;1.00;;;;;;;;;;4948763;28;20047;-88
2022/07/05 09:11:15;;;;;;;2.85;1.10;;;;;;;;;;4946977;28;20141;-87
2022/07/05 09:13:42;;;;;;;6.43;1.13;;;;;;;;;;4931153;29;20035;-87
2022/07/05 09:16:08;;;;;;;6.88;1.23;;;;;;;;;;4927631;28;20035;-88
2022/07/05 09:18:40;;;;;;;5.95;1.13;;;;;;;;;;4945895;28;20102;-88
2022/07/05 09:21:13;;;;;;;3.40;1.23;;;;;;;;;;4934390;28;20102;-89
2022/07/05 09:23:39;;;;;;;2.15;0.88;;;;;;;;;;4930878;29;20047;-89
2022/07/05 09:26:05;;;;;;;11.25;1.38;;;;;;;;;;4946071;28;20102;-88
2022/07/05 09:28:31;;;;;;;5.03;1.08;;;;;;;;;;4927038;29;20110;-88
2022/07/05 09:30:57;;;;;;;3.42;0.77;;;;;;;;;;4929919;28;20039;-89
2022/07/05 09:33:23;;;;;;;3.90;1.30;;;;;;;;;;4933821;28;20039;-88
2022/07/05 09:36:01;;;;;;;3.85;1.40;;;;;;;;;;4932179;28;20032;-88
2022/07/05 09:38:27;;;;;;;2.22;0.95;;;;;;;;;;4949974;28;20023;-89
2022/07/05 09:40:57;;;;;;;4.10;0.73;;;;;;;;;;4949071;28;20067;-88
2022/07/05 09:43:25;;;;;;;4.35;1.00;;;;;;;;;;4928538;28;20046;-88
2022/07/05 09:45:54;;;;;;;4.55;1.02;;;;;;;;;;4930813;29;20402;-88
2022/07/05 09:48:20;;;;;;;3.60;1.10;;;;;;;;;;4948107;28;20386;-88
2022/07/05 09:50:49;;;;;;;5.07;2.00;;;;;;;;;;4931860;29;20046;-89
2022/07/05 09:53:15;;;;;;;4.22;1.02;;;;;;;;;;4932585;28;20082;-87
2022/07/05 09:55:41;;;;;;;4.95;1.25;;;;;;;;;;4926273;28;20557;-87
2022/07/05 09:58:08;;;;;;;5.03;1.38;;;;;;;;;;4951440;28;20027;-88
2022/07/05 10:00:34;;;;;;;7.95;1.00;;;;;;;;;;4949271;28;20027;-86
2022/07/05 10:03:03;;;;;;;4.95;1.05;;;;;;;;;;4947066;28;20391;-87
2022/07/05 10:05:32;;;;;;;2.47;1.00;;;;;;;;;;4951257;28;20036;-88
2022/07/05 10:08:02;;;;;;;3.50;1.20;;;;;;;;;;4949497;28;20051;-88
2022/07/05 10:10:30;;;;;;;5.63;1.17;;;;;;;;;;4945261;28;20065;-88
2022/07/05 10:12:56;;;;;;;6.75;0.90;;;;;;;;;;4942717;28;20130;-88
2022/07/05 10:15:24;;;;;;;6.22;1.23;;;;;;;;;;4928687;29;20106;-88
2022/07/05 10:17:53;;;;;;;5.03;1.30;;;;;;;;;;4929246;28;20026;-88
2022/07/05 10:20:40;;;;;;;3.25;1.25;;;;;;;;;;4948432;28;20107;-88
2022/07/05 10:23:12;;;;;;;3.35;1.08;;;;;;;;;;4931068;29;20042;-88
2022/07/05 10:25:40;;;;;;;4.00;1.20;;;;;;;;;;4933172;29;20031;-88
2022/07/05 10:28:06;;;;;;;6.22;1.20;;;;;;;;;;4943299;28;20046;-88
2022/07/05 10:30:33;;;;;;;4.93;0.80;;;;;;;;;;4942912;28;20023;-88
2022/07/05 10:33:01;;;;;;;6.50;1.00;;;;;;;;;;4944993;28;20043;-88
2022/07/05 10:35:27;;;;;;;1.15;0.60;;;;;;;;;;4936559;28;20090;-88
2022/07/05 10:37:54;;;;;;;2.45;0.90;;;;;;;;;;4936111;28;20049;-88
2022/07/05 10:40:20;;;;;;;6.75;1.58;;;;;;;;;;4943391;28;20090;-88
2022/07/05 10:42:48;;;;;;;3.85;1.45;;;;;;;;;;4949064;28;20114;-87
2022/07/05 10:45:25;;;;;;;5.82;1.35;;;;;;;;;;4933672;29;20039;-89
2022/07/05 10:48:19;;;;;;;1.65;1.52;;;;;;;;;;4942899;28;20122;-88
2022/07/05 10:50:51;;;;;;;3.80;1.58;;;;;;;;;;4945229;28;20054;-88
2022/07/05 10:53:18;;;;;;;6.82;0.90;;;;;;;;;;4931333;28;20122;-88
2022/07/05 10:55:57;;;;;;;4.90;1.15;;;;;;;;;;4947090;28;20038;-88
2022/07/05 10:58:36;;;;;;;6.13;1.30;;;;;;;;;;4926409;29;20045;-88
2022/07/05 11:01:21;;;;;;;1.35;1.23;;;;;;;;;;4949334;28;20024;-88
2022/07/05 11:04:02;;;;;;;3.80;1.27;;;;;;;;;;4946839;28;20030;-88
2022/07/05 11:06:30;;;;;;;2.03;1.10;;;;;;;;;;4950827;28;20059;-87
2022/07/05 11:08:59;;;;;;;6.32;1.55;;;;;;;;;;4930181;29;20533;-87
2022/07/05 11:11:31;;;;;;;2.67;1.20;;;;;;;;;;4933757;28;20035;-87
2022/07/05 11:14:06;;;;;;;6.18;1.08;;;;;;;;;;4962756;28;20046;-87
2022/07/05 11:16:35;;;;;;;3.40;0.93;;;;;;;;;;4966498;28;20026;-87
2022/07/05 11:19:09;;;;;;;2.05;0.80;;;;;;;;;;4944427;28;21327;-86
2022/07/05 11:21:36;;;;;;;3.78;1.52;;;;;;;;;;4964618;28;20037;-87
2022/07/05 11:24:20;;;;;;;4.75;1.65;;;;;;;;;;4963139;28;20037;-87
2022/07/05 11:26:48;;;;;;;4.10;1.60;;;;;;;;;;4967000;28;20030;-87
2022/07/05 11:29:33;;;;;;;10.90;1.80;;;;;;;;;;4941186;28;20030;-87
2022/07/05 11:32:06;;;;;;;3.25;1.73;;;;;;;;;;4967011;28;20056;-87
2022/07/05 11:34:38;;;;;;;12.88;1.50;;;;;;;;;;4963738;28;20823;-88
2022/07/05 11:37:18;;;;;;;2.35;1.20;;;;;;;;;;4947526;28;20623;-88
2022/07/05 11:39:45;;;;;;;4.20;0.98;;;;;;;;;;4947995;28;20117;-88
2022/07/05 11:42:11;;;;;;;4.72;1.27;;;;;;;;;;4951456;28;20038;-87
2022/07/05 11:44:40;;;;;;;4.72;0.80;;;;;;;;;;4965239;28;20038;-87
2022/07/05 11:47:08;;;;;;;1.60;0.73;;;;;;;;;;4947138;28;20023;-87
2022/07/05 11:49:34;;;;;;;3.45;1.20;;;;;;;;;;4964372;28;20030;-87
2022/07/05 11:52:01;;;;;;;7.95;1.20;;;;;;;;;;4969222;28;20037;-86
2022/07/05 11:54:28;;;;;;;8.27;1.23;;;;;;;;;;4951737;28;20133;-86
2022/07/05 11:56:55;;;;;;;4.15;1.10;;;;;;;;;;4965423;28;20030;-86
2022/07/05 11:59:22;;;;;;;6.00;1.30;;;;;;;;;;4945792;28;20054;-86
2022/07/05 12:01:48;;;;;;;5.45;1.27;;;;;;;;;;4966877;28;20064;-85
2022/07/05 12:04:21;;;;;;;6.93;1.52;;;;;;;;;;4949242;28;20735;-85
2022/07/05 12:06:48;;;;;;;4.18;1.17;;;;;;;;;;4964753;28;20049;-86
2022/07/05 12:09:16;;;;;;;8.98;1.60;;;;;;;;;;4950734;28;20034;-87
2022/07/05 12:14:34;;;;;;;7.00;1.52;;;;;;;;;;4922620;29;20118;-86
2022/07/05 12:17:11;;;;;;;4.30;1.42;;;;;;;;;;4946397;28;20067;-86
2022/07/05 12:19:37;;;;;;;8.43;1.77;;;;;;;;;;4943417;28;20131;-86
2022/07/05 12:22:03;;;;;;;8.27;1.30;;;;;;;;;;4931801;29;20102;-86
2022/07/05 12:24:29;;;;;;;6.70;1.42;;;;;;;;;;4925689;29;20146;-87
2022/07/05 12:26:55;;;;;;;8.40;1.05;;;;;;;;;;4949029;28;20019;-86
2022/07/05 12:29:21;;;;;;;5.05;1.88;;;;;;;;;;4950583;28;20035;-86
2022/07/05 12:32:08;;;;;;;5.20;0.90;;;;;;;;;;4932203;29;20122;-86
2022/07/05 12:34:35;;;;;;;6.90;1.25;;;;;;;;;;4942262;28;20636;-87
2022/07/05 12:37:22;;;;;;;4.32;1.13;;;;;;;;;;4950108;28;20074;-86
2022/07/05 12:39:48;;;;;;;3.33;1.20;;;;;;;;;;4929552;28;20367;-87
2022/07/05 12:42:34;;;;;;;5.68;1.05;;;;;;;;;;4933234;28;20039;-87
2022/07/05 12:45:10;;;;;;;4.18;1.13;;;;;;;;;;4939229;28;20576;-87
2022/07/05 12:47:49;;;;;;;5.35;1.00;;;;;;;;;;4944075;28;20106;-87
2022/07/05 12:50:15;;;;;;;4.93;1.33;;;;;;;;;;4946347;28;20477;-87
2022/07/05 12:58:54;;;;;;;2.20;1.40;;;;;;;;;;4948026;28;20533;-87
2022/07/05 13:01:24;;;;;;;2.58;1.02;;;;;;;;;;4927885;28;20046;-87
2022/07/05 13:04:01;;;;;;;2.75;0.90;;;;;;;;;;4942226;28;20386;-87
2022/07/05 13:06:40;;;;;;;1.95;0.90;;;;;;;;;;4927556;28;20035;-86
2022/07/05 13:09:06;;;;;;;3.28;0.93;;;;;;;;;;4948260;28;20039;-87
2022/07/05 13:11:32;;;;;;;1.80;0.88;;;;;;;;;;4948382;28;20047;-87
2022/07/05 13:14:05;;;;;;;6.18;1.13;;;;;;;;;;4960771;28;20070;-87
2022/07/05 13:16:31;;;;;;;1.98;0.90;;;;;;;;;;4947239;28;20071;-86
2022/07/05 13:19:11;;;;;;;3.17;0.90;;;;;;;;;;4952834;28;20043;-87
2022/07/05 13:21:37;;;;;;;5.10;1.15;;;;;;;;;;4947386;28;20028;-87
2022/07/05 13:24:03;;;;;;;3.50;1.10;;;;;;;;;;4967777;28;21593;-87
2022/07/05 13:26:29;;;;;;;3.40;0.82;;;;;;;;;;4965186;28;20409;-87
2022/07/05 13:28:56;;;;;;;3.63;0.95;;;;;;;;;;4968215;28;20439;-87
2022/07/05 13:31:22;;;;;;;3.15;1.13;;;;;;;;;;4966884;28;20554;-87
2022/07/05 13:33:48;;;;;;;1.33;0.65;;;;;;;;;;4949294;28;20034;-88
2022/07/05 13:36:14;;;;;;;5.40;0.90;;;;;;;;;;4953077;28;20064;-87
2022/07/05 13:38:40;;;;;;;3.13;0.80;;;;;;;;;;4968438;28;20458;-88
2022/07/05 13:41:06;;;;;;;4.43;1.00;;;;;;;;;;4970648;28;20061;-88
2022/07/05 13:43:32;;;;;;;4.20;1.17;;;;;;;;;;4952963;28;20157;-88
2022/07/05 13:45:58;;;;;;;1.80;0.88;;;;;;;;;;4971663;28;20646;-88
2022/07/05 13:48:24;;;;;;;4.93;1.23;;;;;;;;;;4948799;28;20031;-88
2022/07/05 13:50:50;;;;;;;1.88;1.30;;;;;;;;;;4967850;28;20031;-88
2022/07/05 13:53:16;;;;;;;3.90;1.20;;;;;;;;;;4952753;28;20147;-88
2022/07/05 13:55:42;;;;;;;3.03;1.30;;;;;;;;;;4950958;28;20031;-88
2022/07/05 13:58:08;;;;;;;1.35;0.90;;;;;;;;;;4949718;28;20049;-88
2022/07/05 14:00:34;;;;;;;2.72;1.00;;;;;;;;;;4970336;28;20485;-88
2022/07/05 14:03:00;;;;;;;4.50;1.33;;;;;;;;;;4973076;28;20600;-88
2022/07/05 14:05:26;;;;;;;4.72;1.38;;;;;;;;;;4957130;28;20125;-88
2022/07/05 14:07:52;;;;;;;4.00;1.27;;;;;;;;;;4952024;28;20047;-88
2022/07/05 14:10:18;;;;;;;4.25;1.27;;;;;;;;;;4955029;28;20514;-88
2022/07/05 14:12:44;;;;;;;2.75;1.23;;;;;;;;;;4946293;28;20065;-88
2022/07/05 14:15:10;;;;;;;4.68;1.40;;;;;;;;;;4951417;28;20100;-88
2022/07/05 14:17:36;;;;;;;2.78;1.00;;;;;;;;;;4950200;28;20043;-88
2022/07/05 14:20:02;;;;;;;4.20;1.20;;;;;;;;;;4936292;28;20030;-88
2022/07/05 14:22:28;;;;;;;5.38;1.35;;;;;;;;;;4948865;28;20032;-87
2022/07/05 14:24:54;;;;;;;4.22;1.27;;;;;;;;;;4937023;28;20113;-88
2022/07/05 14:27:20;;;;;;;3.28;1.38;;;;;;;;;;4931002;28;20455;-87
2022/07/05 14:29:46;;;;;;;4.43;1.60;;;;;;;;;;4928083;28;20035;-87
2022/07/05 14:32:12;;;;;;;1.00;0.90;;;;;;;;;;4926398;28;20386;-87
2022/07/05 14:34:38;;;;;;;1.85;1.08;;;;;;;;;;4935648;28;20082;-87
2022/07/05 14:37:04;;;;;;;2.40;1.00;;;;;;;;;;4930189;28;20749;-87
2022/07/05 14:39:30;;;;;;;1.17;0.80;;;;;;;;;;4930345;28;20038;-88
2022/07/05 14:42:23;;;;;;;3.70;0.90;;;;;;;;;;4947764;28;20031;-87
2022/07/05 14:44:49;;;;;;;3.10;1.17;;;;;;;;;;4915266;28;20089;-87
2022/07/05 14:47:15;;;;;;;2.92;0.98;;;;;;;;;;4936059;28;20034;-85
2022/07/05 14:49:41;;;;;;;2.42;1.10;;;;;;;;;;4930421;28;20434;-87
2022/07/05 14:52:07;;;;;;;2.63;1.02;;;;;;;;;;4929670;28;20031;-87
2022/07/05 14:54:33;;;;;;;1.90;0.90;;;;;;;;;;4928498;28;20039;-87
2022/07/05 14:56:59;;;;;;;5.20;1.00;;;;;;;;;;4950155;28;20406;-85
2022/07/05 14:59:25;;;;;;;2.42;0.80;;;;;;;;;;4947658;28;20039;-85